createdAt,value
2019-04-29T00:02:54.306Z,28.97
2019-04-29T00:07:46.585Z,26.90
2019-04-29T00:12:39.911Z,12.60
2019-04-29T00:17:36.624Z,12.30
2019-04-29T00:22:29.010Z,14.33
2019-04-29T00:27:21.399Z,26.27
2019-04-29T00:32:14.240Z,32.90
2019-04-29T00:37:16.977Z,24.30
2019-04-29T00:42:13.533Z,17.83
2019-04-29T00:47:10.704Z,9.43
2019-04-29T00:52:03.605Z,22.30
2019-04-29T00:56:56.059Z,17.03
2019-04-29T01:01:48.784Z,15.90
2019-04-29T01:06:41.223Z,25.47
2019-04-29T01:11:34.499Z,29.10
2019-04-29T01:16:27.409Z,27.77
2019-04-29T01:21:19.994Z,26.37
2019-04-29T01:26:26.131Z,16.00
2019-04-29T01:31:20.680Z,21.33
2019-04-29T01:36:17.379Z,19.37
2019-04-29T01:41:20.296Z,13.23
2019-04-29T01:46:12.709Z,14.93
2019-04-29T01:51:05.264Z,17.27
2019-04-29T01:55:57.261Z,20.33
2019-04-29T02:00:49.691Z,11.97
2019-04-29T02:05:42.615Z,11.70
2019-04-29T02:10:35.575Z,20.50
2019-04-29T02:15:27.931Z,16.77
2019-04-29T02:20:20.292Z,8.97
2019-04-29T02:25:14.633Z,10.70
2019-04-29T02:30:07.850Z,11.53
2019-04-29T02:35:00.020Z,16.70
2019-04-29T02:39:54.004Z,16.33
2019-04-29T02:44:46.773Z,17.37
2019-04-29T02:49:38.872Z,10.43
2019-04-29T02:54:31.641Z,10.30
2019-04-29T02:59:25.765Z,9.63
2019-04-29T03:04:19.656Z,13.43
2019-04-29T03:09:12.440Z,9.93
2019-04-29T03:14:04.698Z,10.90
2019-04-29T03:18:59.201Z,10.27
2019-04-29T03:23:51.332Z,9.80
2019-04-29T03:28:43.638Z,9.60
2019-04-29T03:33:36.089Z,10.03
2019-04-29T03:38:28.359Z,10.03
2019-04-29T03:43:21.348Z,10.70
2019-04-29T03:48:13.286Z,11.40
2019-04-29T03:53:05.656Z,10.20
2019-04-29T03:57:58.346Z,9.40
2019-04-29T04:02:52.425Z,12.97
2019-04-29T04:07:52.558Z,12.93
2019-04-29T04:12:45.044Z,12.73
2019-04-29T04:17:41.709Z,9.73
2019-04-29T04:22:46.835Z,11.00
2019-04-29T04:27:39.235Z,11.50
2019-04-29T04:32:31.695Z,11.10
2019-04-29T04:37:24.203Z,21.27
2019-04-29T04:42:16.851Z,14.63
2019-04-29T04:47:09.221Z,15.07
2019-04-29T04:52:01.772Z,8.47
2019-04-29T04:56:54.193Z,10.70
2019-04-29T05:01:46.646Z,10.60
2019-04-29T05:06:38.764Z,12.00
2019-04-29T05:11:31.125Z,10.57
2019-04-29T05:16:23.881Z,12.87
2019-04-29T05:21:16.512Z,13.10
2019-04-29T05:26:09.104Z,11.60
2019-04-29T05:31:01.701Z,16.63
2019-04-29T05:36:03.478Z,11.00
2019-04-29T05:40:57.063Z,10.57
2019-04-29T05:45:57.260Z,11.10
2019-04-29T05:50:52.154Z,11.97
2019-04-29T05:55:45.444Z,10.83
2019-04-29T06:00:37.735Z,9.10
2019-04-29T06:05:30.263Z,9.97
2019-04-29T06:10:24.348Z,11.17
2019-04-29T06:15:16.754Z,9.47
2019-04-29T06:20:13.194Z,10.10
2019-04-29T06:25:03.654Z,8.87
2019-04-29T06:29:58.579Z,9.00
2019-04-29T06:34:49.865Z,11.37
2019-04-29T06:39:41.889Z,11.00
2019-04-29T06:44:34.503Z,19.77
2019-04-29T06:49:27.156Z,11.53
2019-04-29T06:54:19.571Z,13.10
2019-04-29T06:59:12.381Z,13.57
2019-04-29T07:04:05.684Z,15.27
2019-04-29T07:08:58.236Z,16.47
2019-04-29T07:13:53.494Z,16.70
2019-04-29T07:18:48.338Z,20.90
2019-04-29T07:23:38.661Z,17.27
2019-04-29T07:28:30.624Z,16.17
2019-04-29T07:33:24.517Z,15.73
2019-04-29T07:38:17.190Z,13.17
2019-04-29T07:43:09.755Z,14.43
2019-04-29T07:48:06.477Z,12.93
2019-04-29T07:52:56.359Z,15.87
2019-04-29T07:57:52.124Z,14.20
2019-04-29T08:02:43.296Z,12.80
2019-04-29T08:07:37.826Z,10.67
2019-04-29T08:12:32.827Z,11.90
2019-04-29T08:17:25.237Z,12.07
2019-04-29T08:22:18.319Z,12.20
2019-04-29T08:27:11.263Z,13.23
2019-04-29T08:32:03.767Z,11.80
2019-04-29T08:36:55.844Z,10.35
2019-04-29T08:41:48.102Z,11.85
2019-04-29T08:46:51.752Z,9.88
2019-04-29T08:51:41.861Z,10.20
2019-04-29T08:56:34.378Z,9.85
2019-04-29T09:01:29.350Z,8.88
2019-04-29T09:06:20.580Z,8.95
2019-04-29T09:11:14.561Z,11.43
2019-04-29T09:16:07.107Z,8.18
2019-04-29T09:20:59.200Z,8.33
2019-04-29T09:26:02.559Z,7.65
2019-04-29T09:30:47.933Z,12.68
2019-04-29T09:35:40.672Z,6.25
2019-04-29T09:40:34.436Z,9.15
2019-04-29T09:45:31.211Z,6.60
2019-04-29T09:50:23.641Z,5.12
2019-04-29T09:55:17.751Z,5.65
2019-04-29T10:00:12.902Z,4.37
2019-04-29T10:05:08.239Z,3.98
2019-04-29T10:10:02.509Z,5.35
2019-04-29T10:14:55.377Z,3.87
2019-04-29T10:19:49.800Z,4.08
2019-04-29T10:24:42.308Z,3.62
2019-04-29T10:29:35.316Z,3.67
2019-04-29T10:34:31.529Z,3.70
2019-04-29T10:39:42.485Z,3.92
2019-04-29T10:44:53.072Z,4.03
2019-04-29T10:49:49.658Z,2.60
2019-04-29T10:54:40.905Z,2.77
2019-04-29T10:59:36.263Z,2.30
2019-04-29T11:04:31.683Z,2.95
2019-04-29T11:09:26.654Z,2.98
2019-04-29T11:14:18.767Z,2.92
2019-04-29T11:19:11.256Z,6.28
2019-04-29T11:24:08.032Z,2.35
2019-04-29T11:29:00.684Z,2.62
2019-04-29T11:33:55.018Z,2.50
2019-04-29T11:38:46.943Z,3.55
2019-04-29T11:43:39.607Z,2.47
2019-04-29T11:48:31.972Z,2.30
2019-04-29T11:53:25.027Z,2.80
2019-04-29T11:58:19.146Z,2.17
2019-04-29T12:03:19.004Z,2.70
2019-04-29T12:08:18.250Z,3.45
2019-04-29T12:13:11.221Z,2.70
2019-04-29T12:18:17.435Z,2.55
2019-04-29T12:23:11.047Z,3.00
2019-04-29T12:28:18.943Z,3.50
2019-04-29T12:33:07.417Z,6.22
2019-04-29T12:38:11.201Z,2.90
2019-04-29T12:43:21.662Z,2.25
2019-04-29T12:48:24.373Z,4.80
2019-04-29T12:53:11.003Z,4.05
2019-04-29T12:58:02.660Z,3.10
2019-04-29T13:03:11.753Z,2.70
2019-04-29T13:08:05.800Z,5.22
2019-04-29T13:12:58.489Z,2.30
2019-04-29T13:18:03.109Z,2.02
2019-04-29T13:22:46.519Z,3.33
2019-04-29T13:27:39.003Z,2.47
2019-04-29T13:32:35.401Z,2.30
2019-04-29T13:37:25.567Z,2.20
2019-04-29T13:42:18.034Z,2.58
2019-04-29T13:47:29.096Z,3.45
2019-04-29T13:52:21.200Z,2.30
2019-04-29T13:57:16.048Z,2.92
2019-04-29T14:02:12.345Z,2.65
2019-04-29T14:07:04.909Z,3.77
2019-04-29T14:12:02.924Z,2.47
2019-04-29T14:17:08.067Z,4.03
2019-04-29T14:21:45.580Z,5.03
2019-04-29T14:26:42.007Z,3.65
2019-04-29T14:31:31.955Z,3.80
2019-04-29T14:36:26.224Z,3.75
2019-04-29T14:41:19.382Z,5.47
2019-04-29T14:46:23.462Z,3.35
2019-04-29T14:51:16.046Z,2.95
2019-04-29T14:56:08.289Z,1.90
2019-04-29T15:01:03.100Z,2.58
2019-04-29T15:05:55.966Z,2.67
2019-04-29T15:10:50.143Z,2.70
2019-04-29T15:15:44.172Z,2.40
2019-04-29T15:20:41.133Z,1.60
2019-04-29T15:25:33.644Z,1.77
2019-04-29T15:30:26.456Z,1.60
2019-04-29T15:35:19.896Z,2.20
2019-04-29T15:40:14.169Z,1.70
2019-04-29T15:45:07.544Z,2.80
2019-04-29T15:50:00.795Z,4.17
2019-04-29T15:54:53.420Z,2.55
2019-04-29T16:04:41.486Z,1.80
2019-04-29T16:09:51.268Z,2.20
2019-04-29T16:14:29.194Z,2.27
2019-04-29T16:19:21.405Z,2.05
2019-04-29T16:24:26.452Z,1.85
2019-04-29T16:29:13.327Z,2.20
2019-04-29T16:34:02.200Z,2.80
2019-04-29T16:43:58.973Z,2.92
2019-04-29T16:48:51.340Z,3.75
2019-04-29T16:53:43.626Z,2.00
2019-04-29T16:58:36.160Z,1.95
2019-04-29T17:03:28.479Z,2.00
2019-04-29T17:08:22.790Z,2.50
2019-04-29T17:13:23.438Z,3.60
2019-04-29T17:18:11.025Z,4.62
2019-04-29T17:23:03.529Z,4.15
2019-04-29T17:28:00.564Z,5.10
2019-04-29T17:33:00.733Z,5.10
2019-04-29T17:35:18.696Z,1.90
2019-04-29T17:37:53.737Z,2.52
2019-04-29T17:42:48.057Z,3.87
2019-04-29T17:47:49.146Z,2.50
2019-04-29T17:52:41.416Z,2.65
2019-04-29T17:57:41.992Z,4.55
2019-04-29T18:02:57.356Z,12.33
2019-04-29T18:07:56.806Z,2.87
2019-04-29T18:12:49.329Z,2.80
2019-04-29T18:17:41.671Z,2.83
2019-04-29T18:22:52.096Z,2.72
2019-04-29T18:27:49.067Z,3.40
2019-04-29T18:32:42.218Z,3.98
2019-04-29T18:37:36.977Z,4.62
2019-04-29T18:42:28.109Z,5.05
2019-04-29T18:47:22.982Z,5.10
2019-04-29T18:52:23.839Z,5.67
2019-04-29T18:57:08.399Z,6.17
2019-04-29T19:02:07.843Z,5.87
2019-04-29T19:06:59.403Z,24.10
2019-04-29T19:11:49.829Z,12.50
2019-04-29T19:16:42.356Z,6.50
2019-04-29T19:21:34.923Z,8.48
2019-04-29T19:26:27.630Z,9.28
2019-04-29T19:31:20.033Z,9.65
2019-04-29T19:36:17.466Z,9.30
2019-04-29T19:41:06.810Z,7.47
2019-04-29T19:45:58.868Z,8.05
2019-04-29T19:51:13.602Z,8.20
2019-04-29T19:55:45.768Z,7.67
2019-04-29T20:00:39.400Z,6.85
2019-04-29T20:05:39.839Z,8.10
2019-04-29T20:10:31.728Z,9.15
2019-04-29T20:15:25.945Z,9.38
2019-04-29T20:20:20.443Z,11.12
2019-04-29T20:25:12.864Z,8.55
2019-04-29T20:30:16.696Z,7.28
2019-04-29T20:35:07.044Z,6.05
2019-04-29T20:40:00.475Z,5.80
2019-04-29T20:44:50.353Z,6.28
2019-04-29T20:49:43.842Z,6.60
2019-04-29T20:54:37.095Z,6.70
2019-04-29T20:59:29.671Z,7.65
2019-04-29T21:04:33.799Z,7.28
2019-04-29T21:09:22.222Z,9.33
2019-04-29T21:14:19.082Z,8.38
2019-04-29T21:19:11.500Z,8.58
2019-04-29T21:24:08.471Z,8.45
2019-04-29T21:28:59.254Z,9.00
2019-04-29T21:33:55.334Z,9.13
2019-04-29T21:39:05.967Z,8.68
2019-04-29T21:43:57.631Z,8.18
2019-04-29T21:48:49.943Z,8.83
2019-04-29T21:53:42.278Z,7.53
2019-04-29T21:58:35.132Z,7.70
2019-04-29T22:03:28.058Z,8.83
2019-04-29T22:08:25.013Z,13.62
2019-04-29T22:13:14.962Z,12.68
2019-04-29T22:18:13.914Z,11.65
2019-04-29T22:23:01.594Z,13.58
2019-04-29T22:27:55.374Z,11.33
2019-04-29T22:32:51.801Z,8.33
2019-04-29T22:37:45.048Z,8.58
2019-04-29T22:43:04.600Z,7.40
2019-04-29T22:47:49.528Z,7.00
2019-04-29T22:52:41.724Z,8.78
2019-04-29T22:57:34.657Z,9.50
2019-04-29T23:02:28.382Z,8.18
2019-04-29T23:07:22.267Z,8.45
2019-04-29T23:12:18.544Z,7.70
2019-04-29T23:17:12.269Z,7.87
2019-04-29T23:22:22.331Z,7.75
2019-04-29T23:27:16.316Z,7.30
2019-04-29T23:32:10.371Z,7.58
2019-04-29T23:37:03.039Z,7.50
2019-04-29T23:41:55.596Z,6.75
2019-04-29T23:46:47.790Z,13.05
2019-04-29T23:51:40.081Z,10.93
2019-04-29T23:56:38.477Z,8.50
